Station: HINDMARSH IS

  Atmospheric Gas Attenuation - ITU Rec 676-11   --------------- db/100km ---------------
Date Time Temp RH % AH g/m3 Dew Point Wind Direction Speed kph Gust kph Barometer mB Rainfall Since 9am 24GHz 47GHz 76GHz 122GHz 134GHz 241GHz
03 07:40 15.9 72 9.75 10.9 6 6 1021.3 0 21.9 27.4 43.7 114.8 111.6 384.8
03 07:30 15.7 73 9.77 10.9 4 7 1021.3 0 22.0 27.5 43.9 115.3 112.1 386.7
03 07:20 15.6 73 9.71 10.8 6 6 1021 0 21.9 27.5 43.7 114.8 111.4 384.3
03 07:10 15.5 73 9.65 10.7 9 9 1020.9 0 21.7 27.4 43.5 114.3 110.8 381.9
03 07:00 15.3 74 9.66 10.7 9 11 1020.9 0 21.8 27.5 43.7 114.7 111.2 383.4
03 06:50 15.4 75 9.85 11 9 11 1020.8 0 22.2 27.7 44.4 116.6 113.6 391.8
03 06:40 15.3 74 9.66 10.7 11 11 1020.7 0 21.8 27.5 43.7 114.7 111.2 383.3
03 06:30 15.4 74 9.72 10.8 11 15 1020.6 0 21.9 27.5 43.8 115.2 111.8 385.6
03 06:20 15.3 75 9.79 10.9 11 11 1020.5 0 22.0 27.7 44.2 116.1 112.9 389.4
03 06:10 15.2 75 9.73 10.8 9 11 1020.5 0 21.9 27.6 44.0 115.5 112.2 387.0
03 06:00 14.9 78 9.94 11.1 11 15 1020.4 0 22.4 28.0 45.0 118.3 115.5 398.5
03 05:50 14.5 78 9.7 10.7 9 9 1020.4 0 21.9 27.8 44.3 116.2 112.8 389.1
03 05:40 14.6 78 9.76 10.8 9 11 1020.2 0 22.0 27.8 44.4 116.7 113.5 391.4
03 05:30 14.4 78 9.64 10.6 11 13 1020.2 0 21.8 27.7 44.0 115.7 112.2 386.6
03 05:20 14.6 78 9.76 10.8 11 11 1020.1 0 22.0 27.8 44.4 116.7 113.5 391.3
03 05:00 14.9 76 9.69 10.7 9 11 1020 0 21.9 27.6 44.0 115.5 112.1 386.5
03 04:50 15 76 9.75 10.8 11 13 1019.9 0 22.0 27.7 44.2 116.0 112.8 388.8
03 04:40 15 75 9.62 10.6 11 11 1019.9 0 21.7 27.5 43.6 114.6 111.0 382.6
03 04:30 15 74 9.49 10.4 11 15 1019.9 0 21.4 27.2 43.1 113.1 109.2 376.5
03 04:20 15.1 74 9.55 10.5 13 15 1019.8 0 21.5 27.3 43.3 113.6 109.9 378.8
03 04:10 15.2 74 9.6 10.6 13 13 1020 0 21.6 27.4 43.4 114.1 110.4 380.7
03 04:00 15.3 74 9.66 10.7 13 19 1020.1 0 21.8 27.4 43.6 114.6 111.1 383.1
03 03:50 15.5 74 9.78 10.9 13 15 1020 0 22.0 27.6 44.0 115.6 112.4 387.8
03 03:40 15.9 74 10.02 11.3 17 20 1020 0 22.5 27.8 44.8 117.6 115.1 397.1
03 03:30 15.8 72 9.69 10.8 17 20 1020.1 0 21.8 27.3 43.5 114.2 110.8 382.1
03 03:20 15.7 71 9.5 10.5 17 19 1020 0 21.4 27.0 42.7 112.3 108.4 373.6
03 03:10 15.7 72 9.63 10.7 17 19 1020 0 21.7 27.3 43.3 113.7 110.1 379.7
03 03:00 15.7 71 9.5 10.5 19 24 1020.1 0 21.4 27.1 42.8 112.3 108.4 373.7
03 02:50 15.7 70 9.37 10.2 13 15 1020.1 0 21.1 26.8 42.2 110.9 106.7 367.6
03 02:40 15.8 71 9.56 10.6 19 20 1020.2 0 21.5 27.1 42.9 112.8 109.1 376.0
03 02:30 15.6 73 9.71 10.8 15 19 1020.3 0 21.9 27.4 43.7 114.7 111.4 384.1
03 02:20 15.5 73 9.65 10.7 13 15 1020.2 0 21.7 27.4 43.5 114.2 110.7 381.7
03 02:10 15.4 73 9.59 10.6 19 20 1020.1 0 21.6 27.3 43.3 113.7 110.0 379.3
03 02:00 15.5 72 9.52 10.5 19 24 1020.2 0 21.5 27.1 42.9 112.8 109.0 375.6
03 01:50 15.7 70 9.37 10.2 22 26 1020 0 21.1 26.8 42.2 110.8 106.7 367.6
03 01:40 15.8 71 9.56 10.6 20 22 1020 0 21.5 27.1 42.9 112.8 109.1 376.0
03 01:30 15.7 71 9.5 10.5 22 26 1020.1 0 21.4 27.1 42.8 112.3 108.4 373.7
03 01:20 15.7 71 9.5 10.5 26 28 1020 0 21.4 27.0 42.7 112.3 108.4 373.6
03 01:10 15.6 71 9.44 10.4 24 26 1020 0 21.3 27.0 42.6 111.7 107.7 371.3
03 01:00 15.7 73 9.77 10.9 22 28 1020.2 0 22.0 27.5 43.9 115.2 112.0 386.4
03 00:50 15.7 73 9.77 10.9 22 24 1020.2 0 22.0 27.5 43.9 115.2 112.0 386.4
03 00:40 15.7 73 9.77 10.9 24 26 1020.2 0 22.0 27.5 43.9 115.2 112.0 386.4
03 00:30 15.6 72 9.57 10.6 26 32 1020.3 0 21.6 27.2 43.1 113.2 109.5 377.5
03 00:20 15.7 72 9.63 10.7 32 33 1020.2 0 21.7 27.3 43.3 113.7 110.1 379.8
03 00:10 15.6 70 9.31 10.2 32 33 1020.1 0 21.0 26.8 42.0 110.4 106.0 365.3
03 00:00 15.7 73 9.77 10.9 26 33 1020.5 0 22.0 27.5 43.9 115.2 112.1 386.5
02 23:50 15.5 74 9.78 10.9 24 30 1020.5 0 22.0 27.6 44.0 115.7 112.5 387.9
02 23:40 15.6 74 9.84 11 22 26 1020.5 0 22.1 27.7 44.2 116.2 113.2 390.3
02 23:30 15.4 72 9.46 10.4 28 33 1020.5 0 21.3 27.1 42.8 112.3 108.3 373.3
02 23:20 15.5 73 9.65 10.7 28 33 1020.3 0 21.7 27.4 43.5 114.2 110.7 381.7
02 23:10 15.4 72 9.46 10.4 30 32 1020.4 0 21.3 27.1 42.8 112.3 108.3 373.3
02 23:00 15.5 71 9.38 10.3 30 35 1020.5 0 21.2 26.9 42.4 111.3 107.1 369.1
02 22:50 15.5 71 9.38 10.3 35 39 1020.3 0 21.2 26.9 42.4 111.3 107.1 369.1
02 22:40 15.6 70 9.31 10.2 33 39 1020.3 0 21.0 26.8 42.0 110.4 106.0 365.3
02 22:30 15.6 71 9.44 10.4 32 39 1020.4 0 21.3 27.0 42.6 111.8 107.8 371.4
02 22:20 15.6 70 9.31 10.2 33 37 1020.2 0 21.0 26.8 42.0 110.4 106.0 365.3
02 22:10 15.4 68 8.93 9.5 37 41 1020.1 0 20.2 26.2 40.6 106.6 101.3 348.6
02 22:00 15.5 71 9.38 10.3 33 41 1020.3 0 21.2 26.9 42.4 111.3 107.1 369.1
02 21:50 15.5 70 9.25 10.1 32 37 1020.2 0 20.9 26.7 41.9 109.9 105.4 363.0
02 21:40 15.5 71 9.38 10.3 33 35 1020.1 0 21.2 26.9 42.4 111.3 107.1 369.0
02 21:30 15.3 68 8.88 9.4 33 39 1020.1 0 20.1 26.2 40.5 106.2 100.7 346.8
02 21:20 15.3 69 9.01 9.7 33 37 1019.9 0 20.4 26.4 41.0 107.5 102.4 352.7
02 21:10 15.4 68 8.93 9.5 35 37 1019.9 0 20.2 26.2 40.6 106.5 101.2 348.6
02 21:00 15.3 69 9.01 9.7 30 35 1020 0 20.4 26.4 41.0 107.5 102.4 352.7
02 20:50 15.3 69 9.01 9.7 33 39 1019.7 0 20.4 26.4 41.0 107.5 102.4 352.7
02 20:40 15.3 67 8.75 9.2 33 37 1019.7 0 19.8 25.9 39.9 104.7 99.0 340.7
02 20:30 15.4 68 8.93 9.5 35 41 1019.8 0 20.2 26.2 40.6 106.5 101.2 348.5
02 20:20 15.4 70 9.2 10 30 33 1019.7 0 20.8 26.6 41.7 109.4 104.8 361.0
02 20:10 15.5 68 8.99 9.6 37 39 1019.4 0 20.3 26.3 40.8 107.0 101.9 350.8
02 20:00 15.7 66 8.83 9.4 33 43 1019.4 0 20.0 25.9 40.0 105.0 99.5 342.5
02 19:50 15.7 65 8.7 9.1 33 35 1019.3 0 19.7 25.7 39.5 103.6 97.8 336.6
02 19:40 15.7 65 8.7 9.1 33 35 1019.1 0 19.7 25.7 39.5 103.6 97.8 336.5
02 19:30 15.9 64 8.67 9.1 32 37 1019.2 0 19.6 25.6 39.3 103.1 97.2 334.4
02 19:20 15.8 64 8.61 9 35 37 1018.9 0 19.5 25.5 39.1 102.5 96.5 332.0
02 19:10 15.9 65 8.8 9.3 33 35 1018.7 0 19.9 25.8 39.8 104.4 98.8 340.1
02 19:00 15.8 65 8.75 9.2 35 44 1018.7 0 19.8 25.8 39.6 104.0 98.3 338.3
02 18:50 16.2 64 8.83 9.4 35 37 1018.5 0 20.0 25.8 39.7 104.3 98.8 340.1
02 18:40 16.4 62 8.65 9.1 35 41 1018.5 0 19.6 25.4 38.9 102.1 96.2 331.2
02 18:30 16.6 61 8.62 9.1 35 41 1018.5 0 19.5 25.3 38.7 101.6 95.6 329.0
02 18:20 17.3 60 8.84 9.5 32 37 1018.2 0 19.9 25.5 39.2 102.9 97.5 335.8
02 18:10 16.7 64 9.09 9.9 32 35 1018.2 0 20.5 26.0 40.5 106.3 101.5 349.7
02 18:00 16.3 63 8.74 9.3 35 41 1018.2 0 19.8 25.6 39.3 103.2 97.5 335.6
02 17:50 16.5 64 8.99 9.7 30 35 1018 0 20.3 25.9 40.2 105.5 100.4 345.9
02 17:40 16.8 61 8.72 9.2 35 43 1017.8 0 19.7 25.4 39.0 102.3 96.6 332.5
02 17:30 16.8 64 9.15 10 35 44 1017.8 0 20.6 26.1 40.7 106.8 102.1 351.8
02 17:20 17.2 65 9.52 10.6 35 41 1017.8 0 21.4 26.5 41.9 110.1 106.4 366.9
02 17:10 17.7 65 9.81 11 35 39 1017.8 0 22.0 26.9 42.8 112.5 109.5 377.8
02 17:00 17.1 61 8.88 9.5 37 43 1017.8 0 20.0 25.6 39.5 103.5 98.2 338.3
02 16:50 17.5 63 9.39 10.4 37 43 1017.6 0 21.1 26.2 41.2 108.3 104.3 359.5
02 16:40 18 63 9.68 10.9 35 37 1017.6 0 21.7 26.6 42.1 110.7 107.4 370.4
02 16:30 17.9 63 9.62 10.8 37 46 1017.7 0 21.5 26.5 42.0 110.2 106.7 368.1
02 16:20 18.3 64 10.01 11.4 37 41 1017.6 0 22.4 27.0 43.3 113.7 111.2 384.0
02 16:10 17.9 64 9.77 11 37 39 1017.7 0 21.9 26.7 42.5 111.8 108.7 375.0
02 16:00 17.6 62 9.3 10.2 37 43 1017.7 0 20.9 26.1 40.8 107.2 103.0 355.0
02 15:50 18.2 59 9.17 10.1 39 43 1017.6 0 20.6 25.7 40.0 105.1 100.5 346.5
02 15:40 18.8 61 9.82 11.1 37 43 1017.6 0 21.9 26.5 42.3 111.0 108.1 372.9
02 15:30 17.9 60 9.16 10 35 46 1017.4 0 20.6 25.8 40.1 105.3 100.8 347.3
02 15:20 18.4 61 9.59 10.7 37 41 1017.3 0 21.5 26.3 41.6 109.1 105.6 364.3
02 15:10 18.8 60 9.66 10.9 35 43 1017.1 0 21.6 26.3 41.6 109.3 106.0 365.6
02 15:00 18.1 61 9.42 10.5 35 44 1017.3 0 21.1 26.1 41.0 107.8 103.8 358.0

Last Refresh: 03-Dec-2021 07:45:31

Bureau of Meteorology